Terminal Aerodrome Forecast
Issued by NWS

Home | Current Version | Previous Version | Text Only | Print | Product List | Glossary On
Versions: 1 2 3 4 5 6 7 8 9 10 11 12 13
449
FTUS44 KTSA 261720
TAFFYV
TAF
KFYV 261720Z 2618/2718 22014G22KT P6SM OVC030
     FM262200 21012G20KT P6SM SCT030 BKN040
     FM270100 19006KT P6SM SCT030 BKN040
     FM270900 20004KT 2SM BR OVC007
     FM271500 19010KT 4SM BR OVC015=

USA.gov is the U.S. government's official web portal to all federal, state and local government web resources and services.